createdAt,value
2023-03-31T00:00:36.122Z,550.00
2023-03-31T00:04:36.222Z,550.00
2023-03-31T00:08:36.608Z,550.00
2023-03-31T00:12:36.100Z,541.00
2023-03-31T00:16:36.174Z,541.00
2023-03-31T00:20:36.097Z,538.00
2023-03-31T00:24:36.077Z,541.00
2023-03-31T00:28:36.068Z,546.00
2023-03-31T00:32:36.096Z,544.00
2023-03-31T00:36:36.048Z,541.00
2023-03-31T00:40:36.099Z,542.00
2023-03-31T00:44:36.075Z,536.00
2023-03-31T00:48:36.092Z,537.00
2023-03-31T00:52:36.098Z,533.00
2023-03-31T00:56:36.097Z,532.00
2023-03-31T01:00:36.088Z,533.00
2023-03-31T01:04:36.097Z,530.00
2023-03-31T01:08:36.102Z,528.00
2023-03-31T01:12:36.086Z,523.00
2023-03-31T01:16:36.220Z,526.00
2023-03-31T01:20:36.129Z,524.00
2023-03-31T01:24:36.152Z,520.00
2023-03-31T01:28:36.121Z,522.00
2023-03-31T01:32:36.154Z,524.00
2023-03-31T01:36:36.091Z,527.00
2023-03-31T01:40:36.064Z,522.00
2023-03-31T01:44:36.094Z,518.00
2023-03-31T01:48:36.101Z,514.00
2023-03-31T01:52:36.137Z,512.00
2023-03-31T01:56:36.147Z,509.00
2023-03-31T02:00:36.172Z,509.00
2023-03-31T02:04:36.262Z,507.00
2023-03-31T02:08:36.217Z,506.00
2023-03-31T02:12:36.258Z,508.00
2023-03-31T02:16:36.295Z,507.00
2023-03-31T02:20:36.336Z,510.00
2023-03-31T02:24:36.372Z,508.00
2023-03-31T02:28:36.416Z,508.00
2023-03-31T02:32:36.447Z,505.00
2023-03-31T02:36:36.469Z,503.00
2023-03-31T02:40:36.578Z,500.00
2023-03-31T02:44:36.548Z,501.00
2023-03-31T02:48:36.588Z,500.00
2023-03-31T02:52:36.613Z,501.00
2023-03-31T02:56:36.673Z,502.00
2023-03-31T03:00:36.652Z,498.00
2023-03-31T03:04:36.728Z,498.00
2023-03-31T03:08:36.705Z,498.00
2023-03-31T03:12:36.766Z,490.00
2023-03-31T03:16:36.841Z,490.00
2023-03-31T03:20:36.824Z,490.00
2023-03-31T03:24:36.875Z,486.00
2023-03-31T03:28:36.895Z,487.00
2023-03-31T03:32:36.990Z,492.00
2023-03-31T03:36:36.968Z,487.00
2023-03-31T03:40:37.046Z,483.00
2023-03-31T03:44:37.076Z,490.00
2023-03-31T03:48:37.190Z,487.00
2023-03-31T03:52:37.108Z,485.00
2023-03-31T03:56:37.139Z,486.00
2023-03-31T04:00:37.168Z,488.00
2023-03-31T04:04:37.221Z,486.00
2023-03-31T04:08:37.198Z,484.00
2023-03-31T04:12:37.275Z,485.00
2023-03-31T04:16:37.349Z,477.00
2023-03-31T04:20:37.313Z,478.00
2023-03-31T04:24:37.363Z,477.00
2023-03-31T04:28:37.416Z,480.00
2023-03-31T04:32:37.474Z,484.00
2023-03-31T04:36:37.496Z,483.00
2023-03-31T04:40:37.536Z,487.00
2023-03-31T04:44:37.558Z,474.00
2023-03-31T04:48:37.607Z,480.00
2023-03-31T04:52:37.631Z,477.00
2023-03-31T04:56:37.707Z,480.00
2023-03-31T05:00:37.749Z,476.00
2023-03-31T05:04:37.792Z,472.00
2023-03-31T05:08:37.824Z,478.00
2023-03-31T05:12:37.844Z,478.00
2023-03-31T05:16:37.901Z,477.00
2023-03-31T05:20:37.914Z,480.00
2023-03-31T05:24:37.971Z,473.00
2023-03-31T05:28:37.941Z,472.00
2023-03-31T05:32:38.011Z,471.00
2023-03-31T05:36:37.959Z,468.00
2023-03-31T05:40:38.196Z,464.00
2023-03-31T05:44:38.191Z,463.00
2023-03-31T05:48:38.208Z,460.00
2023-03-31T05:52:38.214Z,463.00
2023-03-31T05:56:38.014Z,465.00
2023-03-31T06:00:38.179Z,460.00
2023-03-31T06:04:38.130Z,460.00
2023-03-31T06:08:38.692Z,463.00
2023-03-31T06:12:38.082Z,459.00
2023-03-31T06:16:38.063Z,462.00
2023-03-31T06:20:38.085Z,460.00
2023-03-31T06:24:38.094Z,458.00
2023-03-31T06:28:38.112Z,459.00
2023-03-31T06:32:38.144Z,458.00
2023-03-31T06:36:38.145Z,458.00
2023-03-31T06:40:38.156Z,460.00
2023-03-31T06:44:38.223Z,458.00
2023-03-31T06:48:38.263Z,455.00
2023-03-31T06:52:38.279Z,454.00
2023-03-31T06:56:38.721Z,586.00
2023-03-31T07:00:38.466Z,636.00
2023-03-31T07:04:38.763Z,654.00
2023-03-31T07:08:38.529Z,662.00
2023-03-31T07:12:38.527Z,741.00
2023-03-31T07:16:38.676Z,743.00
2023-03-31T07:20:38.715Z,764.00
2023-03-31T07:24:39.188Z,781.00
2023-03-31T07:28:39.055Z,799.00
2023-03-31T07:32:39.216Z,862.00
2023-03-31T07:36:39.431Z,871.00
2023-03-31T07:40:39.739Z,888.00
2023-03-31T07:44:39.716Z,863.00
2023-03-31T07:48:40.213Z,888.00
2023-03-31T07:52:40.042Z,1059.00
2023-03-31T07:56:40.012Z,1045.00
2023-03-31T08:00:39.968Z,1132.00
2023-03-31T08:04:39.993Z,1179.00
2023-03-31T08:08:40.232Z,1189.00
2023-03-31T08:12:39.843Z,1222.00
2023-03-31T08:16:39.921Z,1279.00
2023-03-31T08:20:39.792Z,1333.00
2023-03-31T08:24:39.787Z,1489.00
2023-03-31T08:28:39.750Z,1444.00
2023-03-31T08:32:39.702Z,1461.00
2023-03-31T08:36:39.721Z,1468.00
2023-03-31T08:40:39.648Z,1470.00
2023-03-31T08:44:39.743Z,1463.00
2023-03-31T08:48:39.749Z,1454.00
2023-03-31T08:52:39.507Z,1440.00
2023-03-31T08:56:39.694Z,1380.00
2023-03-31T09:00:39.900Z,1313.00
2023-03-31T09:04:39.892Z,1289.00
2023-03-31T09:08:40.265Z,1209.00
2023-03-31T09:12:39.797Z,1149.00
2023-03-31T09:16:39.834Z,951.00
2023-03-31T09:20:39.731Z,855.00
2023-03-31T09:24:39.688Z,719.00
2023-03-31T09:28:39.756Z,676.00
2023-03-31T09:32:39.668Z,650.00
2023-03-31T09:36:39.766Z,522.00
2023-03-31T09:40:39.782Z,530.00
2023-03-31T09:44:39.806Z,457.00
2023-03-31T09:48:39.494Z,626.00
2023-03-31T09:52:39.771Z,713.00
2023-03-31T09:56:39.757Z,748.00
2023-03-31T10:00:39.594Z,765.00
2023-03-31T10:04:39.854Z,843.00
2023-03-31T10:08:39.542Z,930.00
2023-03-31T10:12:39.835Z,948.00
2023-03-31T10:16:39.459Z,976.00
2023-03-31T10:20:39.432Z,1006.00
2023-03-31T10:24:39.379Z,1045.00
2023-03-31T10:28:39.802Z,1147.00
2023-03-31T10:32:39.795Z,1130.00
2023-03-31T10:36:39.775Z,1130.00
2023-03-31T10:40:39.316Z,1255.00
2023-03-31T10:44:39.220Z,1335.00
2023-03-31T10:48:39.177Z,1363.00
2023-03-31T10:52:39.156Z,1334.00
2023-03-31T10:56:39.290Z,1347.00
2023-03-31T11:00:39.089Z,1369.00
2023-03-31T11:04:39.040Z,1404.00
2023-03-31T11:08:39.004Z,1452.00
2023-03-31T11:12:39.052Z,1492.00
2023-03-31T11:16:39.152Z,1520.00
2023-03-31T11:20:39.059Z,1551.00
2023-03-31T11:24:39.117Z,1423.00
2023-03-31T11:28:39.301Z,1559.00
2023-03-31T11:32:39.308Z,1490.00
2023-03-31T11:36:39.280Z,1329.00
2023-03-31T11:40:39.209Z,1466.00
2023-03-31T11:44:39.783Z,1482.00
2023-03-31T11:48:39.447Z,1473.00
2023-03-31T11:52:39.539Z,1487.00
2023-03-31T11:56:39.809Z,1486.00
2023-03-31T12:00:39.733Z,1488.00
2023-03-31T12:04:39.904Z,1476.00
2023-03-31T12:08:40.013Z,1461.00
2023-03-31T12:12:40.123Z,1444.00
2023-03-31T12:16:40.393Z,1421.00
2023-03-31T12:19:12.642Z,1542.00
2023-03-31T12:20:12.698Z,1498.00
2023-03-31T12:21:12.636Z,1466.00
2023-03-31T12:22:12.604Z,1450.00
2023-03-31T12:23:12.604Z,1440.00
2023-03-31T12:24:12.592Z,1434.00
2023-03-31T12:25:12.623Z,1423.00
2023-03-31T12:26:12.588Z,1413.00
2023-03-31T12:27:12.580Z,1403.00
2023-03-31T12:28:12.550Z,1392.00
2023-03-31T12:29:12.575Z,1371.00
2023-03-31T12:30:12.598Z,1367.00
2023-03-31T12:31:12.603Z,1363.00
2023-03-31T12:32:12.579Z,1357.00
2023-03-31T12:33:12.581Z,1352.00
2023-03-31T12:34:12.517Z,1349.00
2023-03-31T12:35:12.551Z,1346.00
2023-03-31T12:36:12.620Z,1344.00
2023-03-31T12:37:12.506Z,1337.00
2023-03-31T12:38:12.548Z,1333.00
2023-03-31T12:39:12.502Z,1333.00
2023-03-31T12:40:12.472Z,1333.00
2023-03-31T12:41:12.477Z,1329.00
2023-03-31T12:42:12.477Z,1323.00
2023-03-31T12:43:12.479Z,1318.00
2023-03-31T12:44:12.480Z,1312.00
2023-03-31T12:45:12.461Z,1307.00
2023-03-31T12:46:12.510Z,1303.00
2023-03-31T12:47:12.451Z,1293.00
2023-03-31T12:48:12.475Z,1287.00
2023-03-31T12:49:12.433Z,1286.00
2023-03-31T12:50:12.444Z,1280.00
2023-03-31T12:51:12.417Z,1279.00
2023-03-31T12:52:12.421Z,1273.00
2023-03-31T12:53:12.400Z,1268.00
2023-03-31T12:54:12.432Z,1263.00
2023-03-31T12:55:12.399Z,1259.00
2023-03-31T12:56:12.444Z,1256.00
2023-03-31T12:57:12.490Z,1250.00
2023-03-31T12:58:12.423Z,1245.00
2023-03-31T12:59:12.426Z,1240.00
2023-03-31T13:00:12.575Z,1233.00
2023-03-31T13:01:12.662Z,1234.00
2023-03-31T13:02:12.661Z,1234.00
2023-03-31T13:03:12.648Z,1230.00
2023-03-31T13:04:12.635Z,1230.00
2023-03-31T13:05:12.697Z,1230.00
2023-03-31T13:06:12.819Z,1229.00
2023-03-31T13:07:27.162Z,1224.00
2023-03-31T13:08:13.747Z,1220.00
2023-03-31T13:09:12.730Z,1218.00
2023-03-31T13:10:12.835Z,1216.00
2023-03-31T13:11:12.751Z,1211.00
2023-03-31T13:12:12.699Z,1206.00
2023-03-31T13:13:12.694Z,1206.00
2023-03-31T13:14:12.704Z,1204.00
2023-03-31T13:15:12.698Z,1203.00
2023-03-31T13:16:12.739Z,1205.00
2023-03-31T13:17:12.717Z,1202.00
2023-03-31T13:18:12.784Z,1203.00
2023-03-31T13:19:12.775Z,1197.00
2023-03-31T13:20:12.805Z,1198.00
2023-03-31T13:21:12.865Z,1198.00
2023-03-31T13:22:12.925Z,1196.00
2023-03-31T13:23:12.979Z,1194.00
2023-03-31T13:24:13.007Z,1194.00
2023-03-31T13:25:13.074Z,1192.00
2023-03-31T13:26:13.268Z,1190.00
2023-03-31T13:27:13.192Z,1188.00
2023-03-31T13:28:13.220Z,1186.00
2023-03-31T13:29:13.261Z,1183.00
2023-03-31T13:30:13.306Z,1179.00
2023-03-31T13:31:13.461Z,1179.00
2023-03-31T13:32:13.445Z,1180.00
2023-03-31T13:33:13.479Z,1178.00
2023-03-31T13:34:13.521Z,1179.00
2023-03-31T13:35:13.562Z,1176.00
2023-03-31T13:36:13.679Z,1171.00
2023-03-31T13:37:13.682Z,1166.00
2023-03-31T13:38:13.738Z,1164.00
2023-03-31T13:39:13.839Z,1161.00
2023-03-31T13:40:13.882Z,1161.00
2023-03-31T13:41:13.893Z,1162.00
2023-03-31T13:42:13.948Z,1159.00
2023-03-31T13:43:14.001Z,1157.00
2023-03-31T13:44:14.062Z,1154.00
2023-03-31T13:45:14.189Z,1153.00
2023-03-31T13:46:14.541Z,1152.00
2023-03-31T13:47:14.256Z,1149.00
2023-03-31T13:48:14.282Z,1150.00
2023-03-31T13:49:14.355Z,1146.00
2023-03-31T13:50:14.455Z,1147.00
2023-03-31T13:51:14.500Z,1148.00
2023-03-31T13:52:14.546Z,1145.00
2023-03-31T13:53:14.634Z,1138.00
2023-03-31T13:54:14.650Z,1137.00
2023-03-31T13:55:16.530Z,1134.00
2023-03-31T13:56:14.934Z,1135.00
2023-03-31T13:57:15.000Z,1132.00
2023-03-31T13:58:29.353Z,1129.00
2023-03-31T13:59:16.011Z,1126.00
2023-03-31T14:00:15.011Z,1122.00
2023-03-31T14:01:15.045Z,1117.00
2023-03-31T14:02:15.009Z,1113.00
2023-03-31T14:03:15.106Z,1111.00
2023-03-31T14:04:14.984Z,1110.00
2023-03-31T14:05:14.988Z,1110.00
2023-03-31T14:06:14.951Z,1113.00
2023-03-31T14:07:16.962Z,1111.00
2023-03-31T14:08:15.242Z,1111.00
2023-03-31T14:09:15.331Z,1109.00
2023-03-31T14:10:15.386Z,1110.00
2023-03-31T14:11:15.441Z,1111.00
2023-03-31T14:12:15.518Z,1107.00
2023-03-31T14:13:18.188Z,1104.00
2023-03-31T14:14:15.605Z,1101.00
2023-03-31T14:15:15.564Z,1102.00
2023-03-31T14:16:15.576Z,1102.00
2023-03-31T14:17:15.569Z,1100.00
2023-03-31T14:18:15.556Z,1096.00
2023-03-31T14:19:15.542Z,1093.00
2023-03-31T14:20:15.527Z,1091.00
2023-03-31T14:21:15.799Z,1088.00
2023-03-31T14:22:15.542Z,1090.00
2023-03-31T14:23:15.541Z,1090.00
2023-03-31T14:24:15.524Z,1091.00
2023-03-31T14:25:15.503Z,1086.00
2023-03-31T14:26:15.496Z,1087.00
2023-03-31T14:27:15.473Z,1083.00
2023-03-31T14:28:15.482Z,1082.00
2023-03-31T14:29:15.471Z,1080.00
2023-03-31T14:30:15.466Z,1079.00
2023-03-31T14:31:15.462Z,1077.00
2023-03-31T14:32:15.446Z,1074.00
2023-03-31T14:33:15.463Z,1074.00
2023-03-31T14:34:15.440Z,1068.00
2023-03-31T14:35:15.495Z,1067.00
2023-03-31T14:36:15.411Z,1069.00
2023-03-31T14:37:15.427Z,1068.00
2023-03-31T14:38:15.446Z,1065.00
2023-03-31T14:39:15.428Z,1065.00
2023-03-31T14:40:15.430Z,1062.00
2023-03-31T14:41:15.422Z,1059.00
2023-03-31T14:42:15.393Z,1054.00
2023-03-31T14:43:15.403Z,1057.00
2023-03-31T14:44:15.395Z,1055.00
2023-03-31T14:45:15.356Z,1054.00
2023-03-31T14:46:15.382Z,1052.00
2023-03-31T14:47:15.368Z,1049.00
2023-03-31T14:48:15.350Z,1048.00
2023-03-31T14:49:15.415Z,1044.00
2023-03-31T14:50:15.460Z,1041.00
2023-03-31T14:51:15.517Z,1036.00
2023-03-31T14:52:15.570Z,1030.00
2023-03-31T14:53:15.667Z,1026.00
2023-03-31T14:54:15.731Z,1024.00
2023-03-31T14:55:15.802Z,1024.00
2023-03-31T14:56:15.846Z,1024.00
2023-03-31T14:57:15.959Z,1022.00
2023-03-31T14:58:15.937Z,1022.00
2023-03-31T14:59:16.023Z,1023.00
2023-03-31T15:00:16.089Z,1022.00
2023-03-31T15:01:16.172Z,1020.00
2023-03-31T15:02:16.224Z,1025.00
2023-03-31T15:03:16.270Z,1023.00
2023-03-31T15:04:16.397Z,1014.00
2023-03-31T15:05:16.453Z,1012.00
2023-03-31T15:06:16.555Z,1009.00
2023-03-31T15:07:16.534Z,1006.00
2023-03-31T15:08:17.365Z,1007.00
2023-03-31T15:09:16.644Z,1005.00
2023-03-31T15:10:16.748Z,1005.00
2023-03-31T15:11:18.739Z,1004.00
2023-03-31T15:12:16.791Z,1000.00
2023-03-31T15:13:16.772Z,1000.00
2023-03-31T15:14:16.971Z,998.00
2023-03-31T15:15:16.764Z,997.00
2023-03-31T15:16:16.779Z,997.00
2023-03-31T15:17:16.776Z,996.00
2023-03-31T15:18:16.770Z,996.00
2023-03-31T15:19:16.728Z,995.00
2023-03-31T15:20:17.424Z,992.00
2023-03-31T15:21:16.747Z,987.00
2023-03-31T15:22:16.743Z,985.00
2023-03-31T15:23:16.750Z,979.00
2023-03-31T15:24:16.718Z,981.00
2023-03-31T15:25:16.700Z,982.00
2023-03-31T15:26:16.680Z,979.00
2023-03-31T15:28:17.689Z,979.00
2023-03-31T15:29:16.685Z,975.00
2023-03-31T15:30:16.699Z,975.00
2023-03-31T15:31:16.738Z,975.00
2023-03-31T15:32:16.921Z,976.00
2023-03-31T15:33:19.754Z,973.00
2023-03-31T15:34:16.665Z,973.00
2023-03-31T15:36:17.647Z,969.00
2023-03-31T15:37:16.620Z,968.00
2023-03-31T15:38:16.640Z,963.00
2023-03-31T15:39:16.568Z,963.00
2023-03-31T15:40:16.591Z,962.00
2023-03-31T15:41:16.563Z,959.00
2023-03-31T15:42:16.558Z,953.00
2023-03-31T15:44:16.575Z,948.00
2023-03-31T15:45:16.574Z,942.00
2023-03-31T15:46:16.590Z,941.00
2023-03-31T15:47:16.558Z,937.00
2023-03-31T15:48:16.555Z,937.00
2023-03-31T15:49:16.563Z,942.00
2023-03-31T15:50:16.558Z,942.00
2023-03-31T15:51:16.546Z,941.00
2023-03-31T15:52:16.528Z,938.00
2023-03-31T15:53:16.517Z,940.00
2023-03-31T15:54:16.524Z,943.00
2023-03-31T15:55:16.491Z,942.00
2023-03-31T15:56:16.517Z,940.00
2023-03-31T15:57:16.505Z,936.00
2023-03-31T15:58:16.493Z,934.00
2023-03-31T15:59:16.484Z,936.00
2023-03-31T16:00:16.487Z,933.00
2023-03-31T16:01:16.524Z,933.00
2023-03-31T16:02:16.497Z,926.00
2023-03-31T16:03:16.464Z,927.00
2023-03-31T16:04:16.472Z,926.00
2023-03-31T16:05:26.533Z,922.00
2023-03-31T16:06:17.410Z,922.00
2023-03-31T16:07:16.421Z,919.00
2023-03-31T16:08:16.483Z,919.00
2023-03-31T16:09:17.394Z,918.00
2023-03-31T16:10:16.432Z,916.00
2023-03-31T16:11:16.409Z,914.00
2023-03-31T16:12:16.412Z,912.00
2023-03-31T16:13:16.397Z,913.00
2023-03-31T16:14:16.462Z,912.00
2023-03-31T16:15:16.459Z,909.00
2023-03-31T16:16:16.540Z,907.00
2023-03-31T16:17:16.538Z,903.00
2023-03-31T16:18:16.586Z,900.00
2023-03-31T16:19:16.653Z,896.00
2023-03-31T16:20:16.709Z,896.00
2023-03-31T16:21:16.745Z,896.00
2023-03-31T16:22:16.808Z,895.00
2023-03-31T16:23:16.876Z,897.00
2023-03-31T16:24:16.913Z,896.00
2023-03-31T16:25:16.995Z,896.00
2023-03-31T16:26:17.029Z,897.00
2023-03-31T16:27:17.073Z,899.00
2023-03-31T16:28:17.113Z,896.00
2023-03-31T16:29:17.213Z,894.00
2023-03-31T16:30:17.223Z,892.00
2023-03-31T16:31:17.363Z,889.00
2023-03-31T16:32:17.314Z,889.00
2023-03-31T16:33:17.389Z,889.00
2023-03-31T16:34:17.585Z,886.00
2023-03-31T16:35:17.490Z,884.00
2023-03-31T16:36:17.517Z,884.00
2023-03-31T16:37:17.569Z,882.00
2023-03-31T16:38:17.623Z,882.00
2023-03-31T16:39:17.679Z,885.00
2023-03-31T16:40:17.732Z,880.00
2023-03-31T16:41:17.780Z,880.00
2023-03-31T16:42:17.801Z,879.00
2023-03-31T16:43:17.817Z,878.00
2023-03-31T16:44:17.833Z,875.00
2023-03-31T16:45:17.862Z,871.00
2023-03-31T16:46:17.975Z,869.00
2023-03-31T16:47:34.101Z,867.00
2023-03-31T16:48:19.007Z,868.00
2023-03-31T16:49:17.943Z,865.00
2023-03-31T16:50:17.910Z,866.00
2023-03-31T16:51:17.914Z,865.00
2023-03-31T16:52:17.894Z,862.00
2023-03-31T16:53:17.920Z,859.00
2023-03-31T16:54:17.981Z,859.00
2023-03-31T16:55:17.889Z,859.00
2023-03-31T16:56:17.891Z,856.00
2023-03-31T16:57:17.888Z,857.00
2023-03-31T16:58:17.900Z,858.00
2023-03-31T16:59:17.906Z,860.00
2023-03-31T17:00:17.923Z,863.00
2023-03-31T17:01:17.971Z,858.00
2023-03-31T17:02:17.993Z,856.00
2023-03-31T17:03:18.109Z,856.00
2023-03-31T17:04:17.997Z,854.00
2023-03-31T17:05:18.024Z,850.00
2023-03-31T17:06:18.048Z,846.00
2023-03-31T17:07:18.069Z,845.00
2023-03-31T17:08:18.096Z,844.00
2023-03-31T17:09:18.123Z,842.00
2023-03-31T17:10:18.145Z,841.00
2023-03-31T17:11:18.175Z,841.00
2023-03-31T17:12:18.222Z,837.00
2023-03-31T17:13:18.257Z,838.00
2023-03-31T17:14:18.271Z,836.00
2023-03-31T17:15:18.564Z,834.00
2023-03-31T17:16:24.489Z,835.00
2023-03-31T17:17:19.399Z,833.00
2023-03-31T17:18:18.506Z,835.00
2023-03-31T17:19:18.304Z,835.00
2023-03-31T17:20:18.305Z,833.00
2023-03-31T17:21:18.332Z,831.00
2023-03-31T17:22:18.320Z,831.00
2023-03-31T17:23:18.320Z,828.00
2023-03-31T17:24:18.298Z,828.00
2023-03-31T17:25:18.272Z,824.00
2023-03-31T17:26:18.268Z,822.00
2023-03-31T17:27:18.255Z,820.00
2023-03-31T17:28:18.262Z,819.00
2023-03-31T17:29:18.243Z,818.00
2023-03-31T17:30:18.273Z,816.00
2023-03-31T17:31:18.233Z,816.00
2023-03-31T17:32:18.255Z,816.00
2023-03-31T17:33:18.351Z,817.00
2023-03-31T17:34:18.278Z,817.00
2023-03-31T17:35:18.296Z,814.00
2023-03-31T17:36:18.318Z,811.00
2023-03-31T17:37:18.350Z,809.00
2023-03-31T17:38:18.358Z,811.00
2023-03-31T17:39:18.356Z,809.00
2023-03-31T17:40:18.372Z,809.00
2023-03-31T17:41:18.539Z,805.00
2023-03-31T17:42:18.423Z,804.00
2023-03-31T17:43:18.422Z,804.00
2023-03-31T17:44:18.472Z,805.00
2023-03-31T17:45:18.465Z,802.00
2023-03-31T17:46:18.447Z,797.00
2023-03-31T17:47:18.489Z,796.00
2023-03-31T17:48:18.486Z,799.00
2023-03-31T17:49:18.504Z,797.00
2023-03-31T17:50:18.513Z,795.00
2023-03-31T17:51:18.512Z,794.00
2023-03-31T17:52:18.510Z,793.00
2023-03-31T17:53:18.566Z,795.00
2023-03-31T17:54:18.541Z,794.00
2023-03-31T17:55:18.561Z,792.00
2023-03-31T17:56:18.549Z,791.00
2023-03-31T17:57:18.652Z,787.00
2023-03-31T17:58:18.564Z,786.00
2023-03-31T17:59:18.606Z,785.00
2023-03-31T18:00:18.638Z,782.00
2023-03-31T18:01:18.669Z,778.00
2023-03-31T18:02:18.655Z,778.00
2023-03-31T18:03:18.626Z,779.00
2023-03-31T18:04:18.693Z,778.00
2023-03-31T18:05:18.724Z,778.00
2023-03-31T18:06:18.660Z,779.00
2023-03-31T18:07:18.672Z,776.00
2023-03-31T18:08:18.665Z,776.00
2023-03-31T18:09:18.698Z,774.00
2023-03-31T18:10:18.673Z,775.00
2023-03-31T18:11:18.690Z,776.00
2023-03-31T18:12:18.771Z,775.00
2023-03-31T18:13:18.718Z,775.00
2023-03-31T18:14:18.732Z,773.00
2023-03-31T18:15:18.728Z,774.00
2023-03-31T18:16:18.806Z,775.00
2023-03-31T18:17:18.789Z,771.00
2023-03-31T18:18:18.747Z,771.00
2023-03-31T18:19:18.763Z,765.00
2023-03-31T18:20:18.785Z,765.00
2023-03-31T18:21:18.778Z,764.00
2023-03-31T18:22:18.795Z,764.00
2023-03-31T18:23:18.791Z,765.00
2023-03-31T18:24:18.846Z,763.00
2023-03-31T18:25:18.895Z,762.00
2023-03-31T18:26:18.840Z,758.00
2023-03-31T18:27:18.832Z,759.00
2023-03-31T18:28:18.846Z,760.00
2023-03-31T18:29:18.873Z,759.00
2023-03-31T18:30:18.871Z,757.00
2023-03-31T18:31:18.936Z,758.00
2023-03-31T18:32:19.127Z,759.00
2023-03-31T18:33:18.964Z,755.00
2023-03-31T18:34:18.854Z,752.00
2023-03-31T18:35:18.897Z,754.00
2023-03-31T18:36:18.984Z,751.00
2023-03-31T18:37:18.879Z,747.00
2023-03-31T18:38:18.889Z,747.00
2023-03-31T18:39:18.911Z,749.00
2023-03-31T18:40:18.903Z,749.00
2023-03-31T18:41:18.865Z,745.00
2023-03-31T18:42:18.886Z,745.00
2023-03-31T18:43:18.878Z,744.00
2023-03-31T18:44:18.873Z,742.00
2023-03-31T18:45:18.867Z,739.00
2023-03-31T18:46:18.912Z,738.00
2023-03-31T18:47:18.907Z,737.00
2023-03-31T18:48:18.889Z,736.00
2023-03-31T18:49:18.913Z,733.00
2023-03-31T18:50:18.886Z,730.00
2023-03-31T18:51:18.855Z,728.00
2023-03-31T18:52:18.897Z,727.00
2023-03-31T18:53:18.874Z,731.00
2023-03-31T18:54:18.893Z,732.00
2023-03-31T18:55:18.885Z,729.00
2023-03-31T18:56:18.885Z,726.00
2023-03-31T18:57:18.904Z,729.00
2023-03-31T18:58:18.862Z,729.00
2023-03-31T18:59:18.871Z,728.00
2023-03-31T19:00:18.886Z,727.00
2023-03-31T19:01:18.902Z,727.00
2023-03-31T19:02:18.903Z,726.00
2023-03-31T19:03:18.878Z,726.00
2023-03-31T19:04:18.860Z,727.00
2023-03-31T19:05:18.837Z,725.00
2023-03-31T19:06:18.865Z,727.00
2023-03-31T19:07:18.892Z,722.00
2023-03-31T19:08:18.846Z,720.00
2023-03-31T19:09:18.848Z,721.00
2023-03-31T19:10:18.852Z,718.00
2023-03-31T19:11:18.869Z,712.00
2023-03-31T19:12:18.840Z,710.00
2023-03-31T19:13:18.878Z,710.00
2023-03-31T19:14:18.848Z,710.00
2023-03-31T19:15:18.846Z,711.00
2023-03-31T19:16:18.909Z,711.00
2023-03-31T19:17:18.860Z,709.00
2023-03-31T19:18:18.835Z,710.00
2023-03-31T19:19:18.843Z,711.00
2023-03-31T19:20:18.866Z,709.00
2023-03-31T19:21:18.846Z,708.00
2023-03-31T19:22:18.839Z,709.00
2023-03-31T19:23:18.851Z,707.00
2023-03-31T19:24:18.836Z,706.00
2023-03-31T19:25:18.863Z,709.00
2023-03-31T19:26:18.822Z,708.00
2023-03-31T19:27:18.816Z,708.00
2023-03-31T19:28:18.847Z,706.00
2023-03-31T19:29:18.836Z,705.00
2023-03-31T19:30:18.886Z,703.00
2023-03-31T19:31:19.429Z,704.00
2023-03-31T19:32:18.845Z,702.00
2023-03-31T19:33:18.847Z,702.00
2023-03-31T19:34:18.849Z,702.00
2023-03-31T19:35:18.850Z,700.00
2023-03-31T19:36:18.869Z,700.00
2023-03-31T19:37:18.847Z,697.00
2023-03-31T19:38:18.852Z,692.00
2023-03-31T19:39:18.850Z,692.00
2023-03-31T19:40:18.840Z,690.00
2023-03-31T19:41:18.823Z,686.00
2023-03-31T19:42:18.834Z,683.00
2023-03-31T19:43:18.834Z,679.00
2023-03-31T19:44:18.826Z,677.00
2023-03-31T19:45:18.814Z,678.00
2023-03-31T19:46:18.846Z,677.00
2023-03-31T19:47:18.827Z,679.00
2023-03-31T19:48:18.836Z,681.00
2023-03-31T19:49:18.860Z,681.00
2023-03-31T19:50:18.872Z,682.00
2023-03-31T19:51:18.828Z,681.00
2023-03-31T19:52:18.824Z,683.00
2023-03-31T19:53:18.797Z,684.00
2023-03-31T19:54:18.841Z,681.00
2023-03-31T19:55:18.846Z,679.00
2023-03-31T19:56:18.846Z,677.00
2023-03-31T19:57:18.847Z,674.00
2023-03-31T19:58:18.817Z,671.00
2023-03-31T19:59:18.826Z,671.00
2023-03-31T20:00:18.837Z,671.00
2023-03-31T20:01:18.942Z,672.00
2023-03-31T20:02:19.059Z,669.00
2023-03-31T20:03:19.090Z,667.00
2023-03-31T20:04:18.937Z,666.00
2023-03-31T20:05:18.793Z,667.00
2023-03-31T20:06:18.816Z,665.00
2023-03-31T20:07:18.887Z,661.00
2023-03-31T20:08:18.837Z,658.00
2023-03-31T20:09:18.841Z,657.00
2023-03-31T20:10:18.852Z,660.00
2023-03-31T20:11:18.952Z,661.00
2023-03-31T20:12:18.808Z,660.00
2023-03-31T20:13:18.914Z,661.00
2023-03-31T20:14:18.871Z,659.00
2023-03-31T20:15:18.904Z,657.00
2023-03-31T20:16:18.866Z,655.00
2023-03-31T20:17:18.824Z,654.00
2023-03-31T20:18:18.827Z,654.00
2023-03-31T20:19:18.849Z,656.00
2023-03-31T20:20:18.805Z,656.00
2023-03-31T20:21:18.807Z,654.00
2023-03-31T20:22:18.839Z,656.00
2023-03-31T20:23:18.838Z,656.00
2023-03-31T20:24:18.834Z,658.00
2023-03-31T20:25:18.810Z,653.00
2023-03-31T20:26:18.842Z,656.00
2023-03-31T20:27:18.797Z,655.00
2023-03-31T20:28:18.813Z,655.00
2023-03-31T20:29:18.860Z,655.00
2023-03-31T20:30:18.847Z,653.00
2023-03-31T20:31:18.957Z,653.00
2023-03-31T20:32:18.856Z,655.00
2023-03-31T20:33:18.815Z,652.00
2023-03-31T20:34:18.825Z,655.00
2023-03-31T20:35:18.842Z,654.00
2023-03-31T20:36:18.952Z,650.00
2023-03-31T20:37:18.849Z,647.00
2023-03-31T20:38:18.820Z,645.00
2023-03-31T20:39:18.862Z,641.00
2023-03-31T20:40:18.850Z,639.00
2023-03-31T20:41:18.858Z,636.00
2023-03-31T20:42:18.815Z,634.00
2023-03-31T20:43:18.845Z,634.00
2023-03-31T20:44:18.838Z,630.00
2023-03-31T20:45:18.835Z,627.00
2023-03-31T20:46:18.877Z,627.00
2023-03-31T20:47:18.849Z,628.00
2023-03-31T20:48:18.848Z,628.00
2023-03-31T20:49:18.885Z,628.00
2023-03-31T20:50:18.871Z,629.00
2023-03-31T20:51:18.847Z,629.00
2023-03-31T20:52:18.863Z,628.00
2023-03-31T20:53:18.887Z,629.00
2023-03-31T20:54:18.906Z,629.00
2023-03-31T20:55:18.930Z,631.00
2023-03-31T20:56:18.920Z,631.00
2023-03-31T20:57:18.937Z,630.00
2023-03-31T20:58:18.881Z,630.00
2023-03-31T20:59:18.904Z,630.00
2023-03-31T21:00:18.897Z,629.00
2023-03-31T21:01:18.963Z,630.00
2023-03-31T21:02:18.900Z,628.00
2023-03-31T21:03:18.942Z,625.00
2023-03-31T21:04:18.945Z,624.00
2023-03-31T21:05:18.957Z,621.00
2023-03-31T21:06:18.956Z,622.00
2023-03-31T21:07:18.957Z,622.00
2023-03-31T21:08:18.937Z,622.00
2023-03-31T21:09:18.979Z,620.00
2023-03-31T21:10:18.971Z,619.00
2023-03-31T21:11:18.949Z,619.00
2023-03-31T21:12:18.952Z,618.00
2023-03-31T21:13:18.986Z,620.00
2023-03-31T21:14:18.968Z,618.00
2023-03-31T21:15:18.982Z,617.00
2023-03-31T21:16:19.007Z,616.00
2023-03-31T21:17:18.968Z,615.00
2023-03-31T21:18:18.979Z,616.00
2023-03-31T21:19:18.989Z,619.00
2023-03-31T21:20:19.014Z,619.00
2023-03-31T21:21:19.019Z,618.00
2023-03-31T21:22:19.001Z,621.00
2023-03-31T21:23:19.025Z,620.00
2023-03-31T21:24:19.004Z,619.00
2023-03-31T21:25:19.033Z,616.00
2023-03-31T21:26:19.035Z,615.00
2023-03-31T21:27:19.016Z,615.00
2023-03-31T21:28:19.041Z,612.00
2023-03-31T21:29:19.063Z,609.00
2023-03-31T21:30:19.064Z,612.00
2023-03-31T21:31:19.042Z,613.00
2023-03-31T21:32:19.183Z,613.00
2023-03-31T21:33:19.070Z,613.00
2023-03-31T21:34:19.061Z,609.00
2023-03-31T21:35:19.083Z,609.00
2023-03-31T21:36:19.089Z,609.00
2023-03-31T21:37:19.046Z,611.00
2023-03-31T21:38:19.089Z,611.00